sensor_id;sensor_type;location;lat;lon;timestamp;temperature;humidity
13960;DHT22;7052;51.050;3.716;2022-09-27T00:02:21;10.30;99.90
13960;DHT22;7052;51.050;3.716;2022-09-27T00:04:48;10.30;99.90
13960;DHT22;7052;51.050;3.716;2022-09-27T00:07:15;10.30;99.90
13960;DHT22;7052;51.050;3.716;2022-09-27T00:09:42;10.30;99.90
13960;DHT22;7052;51.050;3.716;2022-09-27T00:12:09;10.30;99.90
13960;DHT22;7052;51.050;3.716;2022-09-27T00:14:36;10.30;99.90
13960;DHT22;7052;51.050;3.716;2022-09-27T00:17:04;10.30;99.90
13960;DHT22;7052;51.050;3.716;2022-09-27T00:19:31;10.30;99.90
13960;DHT22;7052;51.050;3.716;2022-09-27T00:21:58;10.30;99.90
13960;DHT22;7052;51.050;3.716;2022-09-27T00:24:26;10.20;99.90
13960;DHT22;7052;51.050;3.716;2022-09-27T00:26:53;10.10;99.90
13960;DHT22;7052;51.050;3.716;2022-09-27T00:29:20;10.10;99.90
13960;DHT22;7052;51.050;3.716;2022-09-27T00:31:47;10.10;99.90
13960;DHT22;7052;51.050;3.716;2022-09-27T00:34:18;10.00;99.90
13960;DHT22;7052;51.050;3.716;2022-09-27T00:36:45;10.00;99.90
13960;DHT22;7052;51.050;3.716;2022-09-27T00:39:12;10.00;99.90
13960;DHT22;7052;51.050;3.716;2022-09-27T00:41:40;10.00;99.90
13960;DHT22;7052;51.050;3.716;2022-09-27T00:47:11;9.90;99.90
13960;DHT22;7052;51.050;3.716;2022-09-27T00:49:44;9.90;99.90
13960;DHT22;7052;51.050;3.716;2022-09-27T00:52:16;9.90;99.90
13960;DHT22;7052;51.050;3.716;2022-09-27T00:54:47;9.90;99.90
13960;DHT22;7052;51.050;3.716;2022-09-27T00:57:15;9.90;99.90
13960;DHT22;7052;51.050;3.716;2022-09-27T00:59:45;9.90;99.90
13960;DHT22;7052;51.050;3.716;2022-09-27T01:02:13;9.80;99.90
13960;DHT22;7052;51.050;3.716;2022-09-27T01:04:42;9.80;99.90
13960;DHT22;7052;51.050;3.716;2022-09-27T01:07:10;9.90;99.90
13960;DHT22;7052;51.050;3.716;2022-09-27T01:09:37;9.80;99.90
13960;DHT22;7052;51.050;3.716;2022-09-27T01:12:10;9.80;99.90
13960;DHT22;7052;51.050;3.716;2022-09-27T01:14:55;9.70;99.90
13960;DHT22;7052;51.050;3.716;2022-09-27T01:17:36;9.80;99.90
13960;DHT22;7052;51.050;3.716;2022-09-27T01:20:34;9.70;99.90
13960;DHT22;7052;51.050;3.716;2022-09-27T01:23:41;9.70;99.90
13960;DHT22;7052;51.050;3.716;2022-09-27T01:26:22;9.70;99.90
13960;DHT22;7052;51.050;3.716;2022-09-27T01:28:59;9.60;99.90
13960;DHT22;7052;51.050;3.716;2022-09-27T01:31:34;9.70;99.90
13960;DHT22;7052;51.050;3.716;2022-09-27T01:34:07;9.60;99.90
13960;DHT22;7052;51.050;3.716;2022-09-27T01:36:42;9.70;99.90
13960;DHT22;7052;51.050;3.716;2022-09-27T01:39:22;9.70;99.90
13960;DHT22;7052;51.050;3.716;2022-09-27T01:41:55;9.70;99.90
13960;DHT22;7052;51.050;3.716;2022-09-27T01:44:29;9.70;99.90
13960;DHT22;7052;51.050;3.716;2022-09-27T01:47:04;9.70;99.90
13960;DHT22;7052;51.050;3.716;2022-09-27T01:49:36;9.80;99.90
13960;DHT22;7052;51.050;3.716;2022-09-27T01:52:07;9.80;99.90
13960;DHT22;7052;51.050;3.716;2022-09-27T01:54:37;9.70;99.90
13960;DHT22;7052;51.050;3.716;2022-09-27T01:57:07;9.70;99.90
13960;DHT22;7052;51.050;3.716;2022-09-27T01:59:41;9.70;99.90
13960;DHT22;7052;51.050;3.716;2022-09-27T02:02:11;9.70;99.90
13960;DHT22;7052;51.050;3.716;2022-09-27T02:04:42;9.70;99.90
13960;DHT22;7052;51.050;3.716;2022-09-27T02:07:14;9.70;99.90
13960;DHT22;7052;51.050;3.716;2022-09-27T02:09:45;9.70;99.90
13960;DHT22;7052;51.050;3.716;2022-09-27T02:12:17;9.70;99.90
13960;DHT22;7052;51.050;3.716;2022-09-27T02:14:49;9.70;99.90
13960;DHT22;7052;51.050;3.716;2022-09-27T02:17:24;9.70;99.90
13960;DHT22;7052;51.050;3.716;2022-09-27T02:20:01;9.70;99.90
13960;DHT22;7052;51.050;3.716;2022-09-27T02:22:34;9.70;99.90
13960;DHT22;7052;51.050;3.716;2022-09-27T02:25:06;9.80;99.90
13960;DHT22;7052;51.050;3.716;2022-09-27T02:27:39;9.80;99.90
13960;DHT22;7052;51.050;3.716;2022-09-27T02:30:11;9.80;99.90
13960;DHT22;7052;51.050;3.716;2022-09-27T02:32:40;9.70;99.90
13960;DHT22;7052;51.050;3.716;2022-09-27T02:35:13;9.70;99.90
13960;DHT22;7052;51.050;3.716;2022-09-27T02:37:41;9.70;99.90
13960;DHT22;7052;51.050;3.716;2022-09-27T02:40:10;9.70;99.90
13960;DHT22;7052;51.050;3.716;2022-09-27T02:42:39;9.70;99.90
13960;DHT22;7052;51.050;3.716;2022-09-27T02:45:07;9.80;99.90
13960;DHT22;7052;51.050;3.716;2022-09-27T02:50:42;9.80;99.90
13960;DHT22;7052;51.050;3.716;2022-09-27T02:53:19;9.80;99.90
13960;DHT22;7052;51.050;3.716;2022-09-27T02:55:52;9.80;99.90
13960;DHT22;7052;51.050;3.716;2022-09-27T02:58:29;9.80;99.90
13960;DHT22;7052;51.050;3.716;2022-09-27T03:01:03;9.80;99.90
13960;DHT22;7052;51.050;3.716;2022-09-27T03:03:40;9.80;99.90
13960;DHT22;7052;51.050;3.716;2022-09-27T03:06:11;9.80;99.90
13960;DHT22;7052;51.050;3.716;2022-09-27T03:08:39;9.80;99.90
13960;DHT22;7052;51.050;3.716;2022-09-27T03:11:09;9.80;99.90
13960;DHT22;7052;51.050;3.716;2022-09-27T03:13:36;9.80;99.90
13960;DHT22;7052;51.050;3.716;2022-09-27T03:16:05;9.80;99.90
13960;DHT22;7052;51.050;3.716;2022-09-27T03:18:32;9.80;99.90
13960;DHT22;7052;51.050;3.716;2022-09-27T03:21:00;9.80;99.90
13960;DHT22;7052;51.050;3.716;2022-09-27T03:23:28;9.80;99.90
13960;DHT22;7052;51.050;3.716;2022-09-27T03:25:54;9.70;99.90
13960;DHT22;7052;51.050;3.716;2022-09-27T03:28:22;9.80;99.90
13960;DHT22;7052;51.050;3.716;2022-09-27T03:30:49;9.80;99.90
13960;DHT22;7052;51.050;3.716;2022-09-27T03:33:16;9.80;99.90
13960;DHT22;7052;51.050;3.716;2022-09-27T03:35:43;9.80;99.90
13960;DHT22;7052;51.050;3.716;2022-09-27T03:38:11;9.80;99.90
13960;DHT22;7052;51.050;3.716;2022-09-27T03:40:39;9.80;99.90
13960;DHT22;7052;51.050;3.716;2022-09-27T03:43:06;9.80;99.90
13960;DHT22;7052;51.050;3.716;2022-09-27T03:45:33;9.70;99.90
13960;DHT22;7052;51.050;3.716;2022-09-27T03:48:00;9.70;99.90
13960;DHT22;7052;51.050;3.716;2022-09-27T03:50:28;9.70;99.90
13960;DHT22;7052;51.050;3.716;2022-09-27T03:52:55;9.70;99.90
13960;DHT22;7052;51.050;3.716;2022-09-27T03:55:23;9.60;99.90
13960;DHT22;7052;51.050;3.716;2022-09-27T03:57:50;9.60;99.90
13960;DHT22;7052;51.050;3.716;2022-09-27T04:00:22;9.50;99.90
13960;DHT22;7052;51.050;3.716;2022-09-27T04:02:50;9.50;99.90
13960;DHT22;7052;51.050;3.716;2022-09-27T04:05:18;9.40;99.90
13960;DHT22;7052;51.050;3.716;2022-09-27T04:07:46;9.30;99.90
13960;DHT22;7052;51.050;3.716;2022-09-27T04:10:14;9.30;99.90
13960;DHT22;7052;51.050;3.716;2022-09-27T04:12:46;9.30;99.90
13960;DHT22;7052;51.050;3.716;2022-09-27T04:15:14;9.20;99.90
13960;DHT22;7052;51.050;3.716;2022-09-27T04:17:41;9.20;99.90
13960;DHT22;7052;51.050;3.716;2022-09-27T04:20:10;9.10;99.90
13960;DHT22;7052;51.050;3.716;2022-09-27T04:22:40;9.10;99.90
13960;DHT22;7052;51.050;3.716;2022-09-27T04:25:10;9.00;99.90
13960;DHT22;7052;51.050;3.716;2022-09-27T04:27:38;9.00;99.90
13960;DHT22;7052;51.050;3.716;2022-09-27T04:30:10;8.90;99.90
13960;DHT22;7052;51.050;3.716;2022-09-27T04:32:40;8.90;99.90
13960;DHT22;7052;51.050;3.716;2022-09-27T04:35:08;8.90;99.90
13960;DHT22;7052;51.050;3.716;2022-09-27T04:37:53;8.80;99.90
13960;DHT22;7052;51.050;3.716;2022-09-27T04:40:20;8.80;99.90
13960;DHT22;7052;51.050;3.716;2022-09-27T04:42:48;8.80;99.90
13960;DHT22;7052;51.050;3.716;2022-09-27T04:45:18;8.70;99.90
13960;DHT22;7052;51.050;3.716;2022-09-27T04:47:46;8.70;99.90
13960;DHT22;7052;51.050;3.716;2022-09-27T04:50:15;8.80;99.90
13960;DHT22;7052;51.050;3.716;2022-09-27T04:52:42;8.80;99.90
13960;DHT22;7052;51.050;3.716;2022-09-27T04:55:11;8.80;99.90
13960;DHT22;7052;51.050;3.716;2022-09-27T04:57:38;8.80;99.90
13960;DHT22;7052;51.050;3.716;2022-09-27T05:00:12;8.80;99.90
13960;DHT22;7052;51.050;3.716;2022-09-27T05:02:41;8.80;99.90
13960;DHT22;7052;51.050;3.716;2022-09-27T05:05:09;8.80;99.90
13960;DHT22;7052;51.050;3.716;2022-09-27T05:07:37;8.70;99.90
13960;DHT22;7052;51.050;3.716;2022-09-27T05:10:08;8.80;99.90
13960;DHT22;7052;51.050;3.716;2022-09-27T05:12:35;8.80;99.90
13960;DHT22;7052;51.050;3.716;2022-09-27T05:15:03;8.70;99.90
13960;DHT22;7052;51.050;3.716;2022-09-27T05:17:30;8.70;99.90
13960;DHT22;7052;51.050;3.716;2022-09-27T05:19:58;8.70;99.90
13960;DHT22;7052;51.050;3.716;2022-09-27T05:22:25;8.70;99.90
13960;DHT22;7052;51.050;3.716;2022-09-27T05:24:52;8.70;99.90
13960;DHT22;7052;51.050;3.716;2022-09-27T05:27:19;8.70;99.90
13960;DHT22;7052;51.050;3.716;2022-09-27T05:29:46;8.70;99.90
13960;DHT22;7052;51.050;3.716;2022-09-27T05:32:13;8.70;99.90
13960;DHT22;7052;51.050;3.716;2022-09-27T05:34:41;8.60;99.90
13960;DHT22;7052;51.050;3.716;2022-09-27T05:37:09;8.60;99.90
13960;DHT22;7052;51.050;3.716;2022-09-27T05:39:36;8.60;99.90
13960;DHT22;7052;51.050;3.716;2022-09-27T05:42:03;8.60;99.90
13960;DHT22;7052;51.050;3.716;2022-09-27T05:44:31;8.60;99.90
13960;DHT22;7052;51.050;3.716;2022-09-27T05:46:59;8.60;99.90
13960;DHT22;7052;51.050;3.716;2022-09-27T05:49:27;8.60;99.90
13960;DHT22;7052;51.050;3.716;2022-09-27T05:51:54;8.60;99.90
13960;DHT22;7052;51.050;3.716;2022-09-27T05:54:22;8.60;99.90
13960;DHT22;7052;51.050;3.716;2022-09-27T05:56:53;8.60;99.90
13960;DHT22;7052;51.050;3.716;2022-09-27T05:59:23;8.60;99.90
13960;DHT22;7052;51.050;3.716;2022-09-27T06:01:50;8.70;99.90
13960;DHT22;7052;51.050;3.716;2022-09-27T06:04:17;8.70;99.90
13960;DHT22;7052;51.050;3.716;2022-09-27T06:06:44;8.70;99.90
13960;DHT22;7052;51.050;3.716;2022-09-27T06:09:11;8.70;99.90
13960;DHT22;7052;51.050;3.716;2022-09-27T06:11:40;8.70;99.90
13960;DHT22;7052;51.050;3.716;2022-09-27T06:14:07;8.70;99.90
13960;DHT22;7052;51.050;3.716;2022-09-27T06:16:34;8.80;99.90
13960;DHT22;7052;51.050;3.716;2022-09-27T06:19:01;8.80;99.90
13960;DHT22;7052;51.050;3.716;2022-09-27T06:21:28;8.80;99.90
13960;DHT22;7052;51.050;3.716;2022-09-27T06:23:56;8.90;99.90
13960;DHT22;7052;51.050;3.716;2022-09-27T06:26:24;8.90;99.90
13960;DHT22;7052;51.050;3.716;2022-09-27T06:28:54;8.90;99.90
13960;DHT22;7052;51.050;3.716;2022-09-27T06:31:21;9.00;99.90
13960;DHT22;7052;51.050;3.716;2022-09-27T06:33:48;9.00;99.90
13960;DHT22;7052;51.050;3.716;2022-09-27T06:36:15;9.00;99.90
13960;DHT22;7052;51.050;3.716;2022-09-27T06:38:43;9.00;99.90
13960;DHT22;7052;51.050;3.716;2022-09-27T06:41:10;9.10;99.90
13960;DHT22;7052;51.050;3.716;2022-09-27T06:43:37;9.10;99.90
13960;DHT22;7052;51.050;3.716;2022-09-27T06:46:06;9.00;99.90
13960;DHT22;7052;51.050;3.716;2022-09-27T06:48:33;9.10;99.90
13960;DHT22;7052;51.050;3.716;2022-09-27T06:51:02;9.10;99.90
13960;DHT22;7052;51.050;3.716;2022-09-27T06:53:29;9.10;99.90
13960;DHT22;7052;51.050;3.716;2022-09-27T06:55:57;9.10;99.90
13960;DHT22;7052;51.050;3.716;2022-09-27T06:58:25;9.10;99.90
13960;DHT22;7052;51.050;3.716;2022-09-27T07:01:12;9.10;99.90
13960;DHT22;7052;51.050;3.716;2022-09-27T07:03:39;9.20;99.90
13960;DHT22;7052;51.050;3.716;2022-09-27T07:06:15;9.20;99.90
13960;DHT22;7052;51.050;3.716;2022-09-27T07:08:42;9.20;99.90
13960;DHT22;7052;51.050;3.716;2022-09-27T07:11:09;9.20;99.90
13960;DHT22;7052;51.050;3.716;2022-09-27T07:13:36;9.20;99.90
13960;DHT22;7052;51.050;3.716;2022-09-27T07:16:10;9.20;99.90
13960;DHT22;7052;51.050;3.716;2022-09-27T07:18:38;9.20;99.90
13960;DHT22;7052;51.050;3.716;2022-09-27T07:21:05;9.20;99.90
13960;DHT22;7052;51.050;3.716;2022-09-27T07:23:34;9.20;99.90
13960;DHT22;7052;51.050;3.716;2022-09-27T07:26:02;9.20;99.90
13960;DHT22;7052;51.050;3.716;2022-09-27T07:28:31;9.10;99.90
13960;DHT22;7052;51.050;3.716;2022-09-27T07:30:58;9.10;99.90
13960;DHT22;7052;51.050;3.716;2022-09-27T07:33:30;9.10;99.90
13960;DHT22;7052;51.050;3.716;2022-09-27T07:35:57;9.10;99.90
13960;DHT22;7052;51.050;3.716;2022-09-27T07:38:24;9.10;99.90
13960;DHT22;7052;51.050;3.716;2022-09-27T07:40:51;9.10;99.90
13960;DHT22;7052;51.050;3.716;2022-09-27T07:43:19;9.20;99.90
13960;DHT22;7052;51.050;3.716;2022-09-27T07:45:46;9.30;99.90
13960;DHT22;7052;51.050;3.716;2022-09-27T07:48:14;9.30;99.90
13960;DHT22;7052;51.050;3.716;2022-09-27T07:50:42;9.30;99.90
13960;DHT22;7052;51.050;3.716;2022-09-27T07:53:09;9.20;99.90
13960;DHT22;7052;51.050;3.716;2022-09-27T07:55:38;9.30;99.90
13960;DHT22;7052;51.050;3.716;2022-09-27T07:58:08;9.30;99.90
13960;DHT22;7052;51.050;3.716;2022-09-27T08:00:36;9.30;99.90
13960;DHT22;7052;51.050;3.716;2022-09-27T08:03:04;9.30;99.90
13960;DHT22;7052;51.050;3.716;2022-09-27T08:05:33;9.30;99.90
13960;DHT22;7052;51.050;3.716;2022-09-27T08:08:07;9.40;99.90
13960;DHT22;7052;51.050;3.716;2022-09-27T08:10:40;9.40;99.90
13960;DHT22;7052;51.050;3.716;2022-09-27T08:13:09;9.40;99.90
13960;DHT22;7052;51.050;3.716;2022-09-27T08:15:37;9.40;99.90
13960;DHT22;7052;51.050;3.716;2022-09-27T08:18:05;9.40;99.90
13960;DHT22;7052;51.050;3.716;2022-09-27T08:20:34;9.40;99.90
13960;DHT22;7052;51.050;3.716;2022-09-27T08:23:00;9.50;99.90
13960;DHT22;7052;51.050;3.716;2022-09-27T08:25:30;9.50;99.90
13960;DHT22;7052;51.050;3.716;2022-09-27T08:27:58;9.60;99.90
13960;DHT22;7052;51.050;3.716;2022-09-27T08:30:26;9.50;99.90
13960;DHT22;7052;51.050;3.716;2022-09-27T08:32:58;9.60;99.90
13960;DHT22;7052;51.050;3.716;2022-09-27T08:35:27;9.70;99.90
13960;DHT22;7052;51.050;3.716;2022-09-27T08:37:56;9.70;99.90
13960;DHT22;7052;51.050;3.716;2022-09-27T08:40:42;9.70;99.90
13960;DHT22;7052;51.050;3.716;2022-09-27T08:43:17;9.80;99.90
13960;DHT22;7052;51.050;3.716;2022-09-27T08:45:59;9.90;99.90
13960;DHT22;7052;51.050;3.716;2022-09-27T08:48:29;10.10;99.90
13960;DHT22;7052;51.050;3.716;2022-09-27T08:50:57;10.10;99.90
13960;DHT22;7052;51.050;3.716;2022-09-27T08:53:27;10.20;99.90
13960;DHT22;7052;51.050;3.716;2022-09-27T08:55:58;10.20;99.90
13960;DHT22;7052;51.050;3.716;2022-09-27T08:58:29;10.30;99.90
13960;DHT22;7052;51.050;3.716;2022-09-27T09:01:00;10.30;99.90
13960;DHT22;7052;51.050;3.716;2022-09-27T09:03:29;10.40;99.90
13960;DHT22;7052;51.050;3.716;2022-09-27T09:06:09;10.50;99.90
13960;DHT22;7052;51.050;3.716;2022-09-27T09:08:43;10.50;99.90
13960;DHT22;7052;51.050;3.716;2022-09-27T09:11:23;10.50;99.90
13960;DHT22;7052;51.050;3.716;2022-09-27T09:14:27;10.50;99.90
13960;DHT22;7052;51.050;3.716;2022-09-27T09:17:10;10.50;99.90
13960;DHT22;7052;51.050;3.716;2022-09-27T09:19:54;10.50;99.90
13960;DHT22;7052;51.050;3.716;2022-09-27T09:22:37;10.70;99.90
13960;DHT22;7052;51.050;3.716;2022-09-27T09:25:21;10.80;99.90
13960;DHT22;7052;51.050;3.716;2022-09-27T09:27:58;10.90;99.90
13960;DHT22;7052;51.050;3.716;2022-09-27T09:30:38;11.00;99.90
13960;DHT22;7052;51.050;3.716;2022-09-27T09:33:15;11.10;99.90
13960;DHT22;7052;51.050;3.716;2022-09-27T09:35:48;11.20;99.90
13960;DHT22;7052;51.050;3.716;2022-09-27T09:38:21;11.40;99.90
13960;DHT22;7052;51.050;3.716;2022-09-27T09:40:54;11.80;99.90
13960;DHT22;7052;51.050;3.716;2022-09-27T09:43:27;12.20;99.90
13960;DHT22;7052;51.050;3.716;2022-09-27T09:46:00;12.60;99.90
13960;DHT22;7052;51.050;3.716;2022-09-27T09:48:32;12.90;99.90
13960;DHT22;7052;51.050;3.716;2022-09-27T09:51:01;13.20;99.90
13960;DHT22;7052;51.050;3.716;2022-09-27T09:53:39;13.40;99.90
13960;DHT22;7052;51.050;3.716;2022-09-27T09:56:14;13.50;99.90
13960;DHT22;7052;51.050;3.716;2022-09-27T09:58:47;13.60;99.90
13960;DHT22;7052;51.050;3.716;2022-09-27T10:01:19;13.60;99.90
13960;DHT22;7052;51.050;3.716;2022-09-27T10:03:47;13.70;99.90
13960;DHT22;7052;51.050;3.716;2022-09-27T10:06:15;13.70;99.90
13960;DHT22;7052;51.050;3.716;2022-09-27T10:08:43;13.70;99.90
13960;DHT22;7052;51.050;3.716;2022-09-27T10:11:18;13.60;99.90
13960;DHT22;7052;51.050;3.716;2022-09-27T10:13:48;13.60;99.90
13960;DHT22;7052;51.050;3.716;2022-09-27T10:16:16;13.50;99.90
13960;DHT22;7052;51.050;3.716;2022-09-27T10:18:44;13.30;99.90
13960;DHT22;7052;51.050;3.716;2022-09-27T10:21:14;13.10;99.90
13960;DHT22;7052;51.050;3.716;2022-09-27T10:24:05;12.70;99.90
13960;DHT22;7052;51.050;3.716;2022-09-27T10:26:33;12.30;99.90
13960;DHT22;7052;51.050;3.716;2022-09-27T10:29:15;12.10;99.90
13960;DHT22;7052;51.050;3.716;2022-09-27T10:31:44;12.00;99.90
13960;DHT22;7052;51.050;3.716;2022-09-27T10:34:20;12.10;99.90
13960;DHT22;7052;51.050;3.716;2022-09-27T10:37:02;12.20;99.90
13960;DHT22;7052;51.050;3.716;2022-09-27T10:39:30;12.40;99.90
13960;DHT22;7052;51.050;3.716;2022-09-27T10:41:58;12.60;99.90
13960;DHT22;7052;51.050;3.716;2022-09-27T10:44:27;12.70;99.90
13960;DHT22;7052;51.050;3.716;2022-09-27T10:47:00;12.90;99.90
13960;DHT22;7052;51.050;3.716;2022-09-27T10:49:28;13.10;99.90
13960;DHT22;7052;51.050;3.716;2022-09-27T10:51:59;13.30;99.90
13960;DHT22;7052;51.050;3.716;2022-09-27T10:54:29;13.60;99.90
13960;DHT22;7052;51.050;3.716;2022-09-27T10:56:59;13.80;99.90
13960;DHT22;7052;51.050;3.716;2022-09-27T10:59:33;14.00;99.90
13960;DHT22;7052;51.050;3.716;2022-09-27T11:02:00;14.40;99.90
13960;DHT22;7052;51.050;3.716;2022-09-27T11:04:29;14.60;99.90
13960;DHT22;7052;51.050;3.716;2022-09-27T11:07:13;15.00;99.90
13960;DHT22;7052;51.050;3.716;2022-09-27T11:09:48;15.10;99.90
13960;DHT22;7052;51.050;3.716;2022-09-27T11:12:16;15.30;99.90
13960;DHT22;7052;51.050;3.716;2022-09-27T11:14:52;15.60;99.90
13960;DHT22;7052;51.050;3.716;2022-09-27T11:17:26;15.50;99.90
13960;DHT22;7052;51.050;3.716;2022-09-27T11:20:15;15.40;99.90
13960;DHT22;7052;51.050;3.716;2022-09-27T11:23:19;15.40;99.90
13960;DHT22;7052;51.050;3.716;2022-09-27T11:25:58;15.50;99.90
13960;DHT22;7052;51.050;3.716;2022-09-27T11:28:40;15.60;99.90
13960;DHT22;7052;51.050;3.716;2022-09-27T11:31:21;15.70;99.90
13960;DHT22;7052;51.050;3.716;2022-09-27T11:37:05;15.70;99.90
13960;DHT22;7052;51.050;3.716;2022-09-27T11:39:45;15.80;99.90
13960;DHT22;7052;51.050;3.716;2022-09-27T11:42:38;15.80;99.90
13960;DHT22;7052;51.050;3.716;2022-09-27T11:45:25;15.80;99.90
13960;DHT22;7052;51.050;3.716;2022-09-27T11:48:06;15.90;99.90
13960;DHT22;7052;51.050;3.716;2022-09-27T11:53:56;15.90;93.00
13960;DHT22;7052;51.050;3.716;2022-09-27T11:56:36;15.80;93.10
13960;DHT22;7052;51.050;3.716;2022-09-27T11:59:27;15.70;93.60
13960;DHT22;7052;51.050;3.716;2022-09-27T12:02:01;15.50;99.10
13960;DHT22;7052;51.050;3.716;2022-09-27T12:04:56;15.40;99.90
13960;DHT22;7052;51.050;3.716;2022-09-27T12:07:32;15.30;99.90
13960;DHT22;7052;51.050;3.716;2022-09-27T12:10:08;15.00;99.90
13960;DHT22;7052;51.050;3.716;2022-09-27T12:12:40;14.80;99.90
13960;DHT22;7052;51.050;3.716;2022-09-27T12:15:14;14.70;99.90
13960;DHT22;7052;51.050;3.716;2022-09-27T12:17:44;14.60;99.90
13960;DHT22;7052;51.050;3.716;2022-09-27T12:20:18;14.50;99.90
13960;DHT22;7052;51.050;3.716;2022-09-27T12:22:53;14.40;99.90
13960;DHT22;7052;51.050;3.716;2022-09-27T12:25:23;14.30;99.90
13960;DHT22;7052;51.050;3.716;2022-09-27T12:27:55;14.20;99.90
13960;DHT22;7052;51.050;3.716;2022-09-27T12:30:23;14.30;99.90
13960;DHT22;7052;51.050;3.716;2022-09-27T12:32:55;14.30;99.90
13960;DHT22;7052;51.050;3.716;2022-09-27T12:35:28;14.30;99.90
13960;DHT22;7052;51.050;3.716;2022-09-27T12:37:59;14.30;99.90
13960;DHT22;7052;51.050;3.716;2022-09-27T12:40:29;14.20;99.90
13960;DHT22;7052;51.050;3.716;2022-09-27T12:43:01;14.20;99.90
13960;DHT22;7052;51.050;3.716;2022-09-27T12:45:43;14.10;99.90
13960;DHT22;7052;51.050;3.716;2022-09-27T12:48:16;13.90;99.90
13960;DHT22;7052;51.050;3.716;2022-09-27T12:50:52;13.80;99.90
13960;DHT22;7052;51.050;3.716;2022-09-27T12:53:22;13.80;99.90
13960;DHT22;7052;51.050;3.716;2022-09-27T12:56:08;13.70;99.90
13960;DHT22;7052;51.050;3.716;2022-09-27T12:59:13;13.60;99.90
13960;DHT22;7052;51.050;3.716;2022-09-27T13:05:11;13.60;99.90
13960;DHT22;7052;51.050;3.716;2022-09-27T13:08:08;13.50;99.90
13960;DHT22;7052;51.050;3.716;2022-09-27T13:10:47;13.60;99.90
13960;DHT22;7052;51.050;3.716;2022-09-27T13:13:18;13.70;99.90
13960;DHT22;7052;51.050;3.716;2022-09-27T13:15:47;13.70;99.90
13960;DHT22;7052;51.050;3.716;2022-09-27T13:18:54;13.60;99.90
13960;DHT22;7052;51.050;3.716;2022-09-27T13:21:57;13.70;99.90
13960;DHT22;7052;51.050;3.716;2022-09-27T13:24:44;13.70;99.90
13960;DHT22;7052;51.050;3.716;2022-09-27T13:27:36;13.90;99.90
13960;DHT22;7052;51.050;3.716;2022-09-27T13:33:43;14.00;99.90
13960;DHT22;7052;51.050;3.716;2022-09-27T13:36:26;14.10;99.90
13960;DHT22;7052;51.050;3.716;2022-09-27T13:39:04;14.10;99.90
13960;DHT22;7052;51.050;3.716;2022-09-27T13:42:11;14.20;99.90
13960;DHT22;7052;51.050;3.716;2022-09-27T13:44:52;14.20;99.90
13960;DHT22;7052;51.050;3.716;2022-09-27T13:47:28;14.20;99.90
13960;DHT22;7052;51.050;3.716;2022-09-27T13:50:12;14.10;99.90
13960;DHT22;7052;51.050;3.716;2022-09-27T13:52:43;14.10;99.90
13960;DHT22;7052;51.050;3.716;2022-09-27T13:55:42;14.00;99.90
13960;DHT22;7052;51.050;3.716;2022-09-27T13:58:16;14.00;99.90
13960;DHT22;7052;51.050;3.716;2022-09-27T14:00:52;13.90;99.90
13960;DHT22;7052;51.050;3.716;2022-09-27T14:03:24;13.90;99.90
13960;DHT22;7052;51.050;3.716;2022-09-27T14:06:00;13.80;99.90
13960;DHT22;7052;51.050;3.716;2022-09-27T14:08:32;13.70;99.90
13960;DHT22;7052;51.050;3.716;2022-09-27T14:11:02;13.60;99.90
13960;DHT22;7052;51.050;3.716;2022-09-27T14:13:31;13.50;99.90
13960;DHT22;7052;51.050;3.716;2022-09-27T14:16:02;13.30;99.90
13960;DHT22;7052;51.050;3.716;2022-09-27T14:18:32;13.20;99.90
13960;DHT22;7052;51.050;3.716;2022-09-27T14:21:13;13.20;99.90
13960;DHT22;7052;51.050;3.716;2022-09-27T14:23:44;13.00;99.90
13960;DHT22;7052;51.050;3.716;2022-09-27T14:26:21;12.90;99.90
13960;DHT22;7052;51.050;3.716;2022-09-27T14:28:50;12.90;99.90
13960;DHT22;7052;51.050;3.716;2022-09-27T14:31:19;12.80;99.90
13960;DHT22;7052;51.050;3.716;2022-09-27T14:33:47;12.70;99.90
13960;DHT22;7052;51.050;3.716;2022-09-27T14:36:28;12.80;99.90
13960;DHT22;7052;51.050;3.716;2022-09-27T14:39:14;12.80;99.90
13960;DHT22;7052;51.050;3.716;2022-09-27T14:41:41;12.90;99.90
13960;DHT22;7052;51.050;3.716;2022-09-27T14:44:17;12.90;99.90
13960;DHT22;7052;51.050;3.716;2022-09-27T14:46:45;13.00;99.90
13960;DHT22;7052;51.050;3.716;2022-09-27T14:49:19;13.00;99.90
13960;DHT22;7052;51.050;3.716;2022-09-27T14:51:51;13.10;99.90
13960;DHT22;7052;51.050;3.716;2022-09-27T14:54:22;13.20;99.90
13960;DHT22;7052;51.050;3.716;2022-09-27T14:56:51;13.30;99.90
13960;DHT22;7052;51.050;3.716;2022-09-27T14:59:25;13.40;99.90
13960;DHT22;7052;51.050;3.716;2022-09-27T15:01:57;13.40;99.90
13960;DHT22;7052;51.050;3.716;2022-09-27T15:04:28;13.40;99.90
13960;DHT22;7052;51.050;3.716;2022-09-27T15:06:56;13.40;99.90
13960;DHT22;7052;51.050;3.716;2022-09-27T15:09:26;13.30;99.90
13960;DHT22;7052;51.050;3.716;2022-09-27T15:11:56;13.20;99.90
13960;DHT22;7052;51.050;3.716;2022-09-27T15:14:27;13.10;99.90
13960;DHT22;7052;51.050;3.716;2022-09-27T15:16:57;13.00;99.90
13960;DHT22;7052;51.050;3.716;2022-09-27T15:19:31;13.00;99.90
13960;DHT22;7052;51.050;3.716;2022-09-27T15:22:28;13.00;99.90
13960;DHT22;7052;51.050;3.716;2022-09-27T15:27:49;13.50;99.90
13960;DHT22;7052;51.050;3.716;2022-09-27T15:30:23;14.00;99.90
13960;DHT22;7052;51.050;3.716;2022-09-27T15:32:52;14.20;99.90
13960;DHT22;7052;51.050;3.716;2022-09-27T15:35:27;14.20;99.90
13960;DHT22;7052;51.050;3.716;2022-09-27T15:38:25;14.20;99.90
13960;DHT22;7052;51.050;3.716;2022-09-27T15:41:01;14.10;99.90
13960;DHT22;7052;51.050;3.716;2022-09-27T15:43:31;14.00;99.90
13960;DHT22;7052;51.050;3.716;2022-09-27T15:46:02;13.90;99.90
13960;DHT22;7052;51.050;3.716;2022-09-27T15:48:31;13.80;99.90
13960;DHT22;7052;51.050;3.716;2022-09-27T15:51:00;13.70;99.90
13960;DHT22;7052;51.050;3.716;2022-09-27T15:53:42;13.70;99.90
13960;DHT22;7052;51.050;3.716;2022-09-27T15:56:14;13.60;99.90
13960;DHT22;7052;51.050;3.716;2022-09-27T15:58:42;13.50;99.90
13960;DHT22;7052;51.050;3.716;2022-09-27T16:01:21;13.50;99.90
13960;DHT22;7052;51.050;3.716;2022-09-27T16:03:48;13.40;99.90
13960;DHT22;7052;51.050;3.716;2022-09-27T16:06:15;13.30;99.90
13960;DHT22;7052;51.050;3.716;2022-09-27T16:08:43;13.30;99.90
13960;DHT22;7052;51.050;3.716;2022-09-27T16:11:13;13.30;99.90
13960;DHT22;7052;51.050;3.716;2022-09-27T16:13:41;13.30;99.90
13960;DHT22;7052;51.050;3.716;2022-09-27T16:16:14;13.30;99.90
13960;DHT22;7052;51.050;3.716;2022-09-27T16:18:44;13.30;99.90
13960;DHT22;7052;51.050;3.716;2022-09-27T16:21:12;13.20;99.90
13960;DHT22;7052;51.050;3.716;2022-09-27T16:23:39;13.20;99.90
13960;DHT22;7052;51.050;3.716;2022-09-27T16:26:07;13.30;99.90
13960;DHT22;7052;51.050;3.716;2022-09-27T16:28:34;13.30;99.90
13960;DHT22;7052;51.050;3.716;2022-09-27T16:31:08;13.30;99.90
13960;DHT22;7052;51.050;3.716;2022-09-27T16:33:35;13.20;99.90
13960;DHT22;7052;51.050;3.716;2022-09-27T16:36:07;13.20;99.90
13960;DHT22;7052;51.050;3.716;2022-09-27T16:38:39;13.20;99.90
13960;DHT22;7052;51.050;3.716;2022-09-27T16:41:06;13.20;99.90
13960;DHT22;7052;51.050;3.716;2022-09-27T16:43:36;13.10;99.90
13960;DHT22;7052;51.050;3.716;2022-09-27T16:46:04;13.10;99.90
13960;DHT22;7052;51.050;3.716;2022-09-27T16:48:33;13.00;99.90
13960;DHT22;7052;51.050;3.716;2022-09-27T16:51:09;13.00;99.90